This is the latest recevied weather packets stored in our database for station/object W6UA-13. If no packets are shown the sender has not sent any weather packets the latest 10 day(s).
| Time | Temp. | Humidity | Pressure | Rain* | Wind** | Luminosity | Snow |
|---|---|---|---|---|---|---|---|
| 1777608289 | 12.78° C | 81% | 1013.9 hPa | 0 mm | - | 0 W/m² | - |
| 1777607389 | 12.78° C | 80% | 1013.8 hPa | 0 mm | - | 0 W/m² | - |
| 1777606489 | 13.33° C | 79% | 1013.5 hPa | 0 mm | - | 0 W/m² | - |
| 1777605589 | 13.33° C | 78% | 1013.3 hPa | 0 mm | - | 0 W/m² | - |
| 1777604689 | 13.89° C | 76% | 1013.3 hPa | 0 mm | - | 0 W/m² | - |
| 1777603789 | 15° C | 73% | 1013.2 hPa | 0 mm | - | 0 W/m² | - |
| 1777602889 | 15.56° C | 71% | 1013 hPa | 0 mm | - | 12 W/m² | - |
| 1777601989 | 16.11° C | 70% | 1012.9 hPa | 0 mm | - | 23 W/m² | - |
| 1777586690 | 23.33° C | 52% | 1012.9 hPa | 0 mm | - | 779 W/m² | - |
| 1777583990 | 23.89° C | 53% | 1013.1 hPa | 0 mm | - | 844 W/m² | - |
| 1777583090 | 22.78° C | 54% | 1013.2 hPa | 0 mm | - | 860 W/m² | - |
| 1777580390 | 22.22° C | 57% | 1013 hPa | 0 mm | - | 888 W/m² | - |
| 1777576790 | 20.56° C | 60% | 1013.4 hPa | 0 mm | - | 865 W/m² | - |
| 1777569590 | 18.33° C | 70% | 1013.8 hPa | 0 mm | - | 673 W/m² | - |
| 1777565990 | 15° C | 78% | 1014.3 hPa | 0 mm | - | 455 W/m² | - |
| 1777563290 | 11.11° C | 90% | 1014.3 hPa | 0 mm | - | 158 W/m² | - |
| 1777557890 | 10.56° C | 90% | 1013.9 hPa | 0 mm | - | 32 W/m² | - |
| 1777555190 | 10.56° C | 90% | 1013.7 hPa | 0 mm | - | 0 W/m² | - |
| 1777554290 | 11.11° C | 89% | 1013.7 hPa | 0 mm | - | 0 W/m² | - |
| 1777551590 | 11.11° C | 89% | 1013.7 hPa | 0 mm | - | 0 W/m² | - |
| 1777547990 | 10.56° C | 89% | 1013.7 hPa | 0 mm | - | 0 W/m² | - |
| 1777545290 | 10° C | 88% | 1014.1 hPa | 0 mm | - | 0 W/m² | - |
| 1777544390 | 10° C | 88% | 1014.3 hPa | 0 mm | - | 0 W/m² | - |
| 1777541690 | 10° C | 87% | 1014.5 hPa | 0 mm | - | 0 W/m² | - |
| 1777540790 | 10° C | 87% | 1014.7 hPa | 0 mm | - | 0 W/m² | - |
* Rain latest hour (hover to see other rain measurements)
** Current wind speed in m/s (hover to see current wind gust speed)